Time;durP1;ratioP1;P1;durP2;ratioP2;P2;SDS_P1;SDS_P2;PMS_P1;PMS_P2;Temp;Humidity;BMP_temperature;BMP_pressure;BME280_temperature;BME280_humidity;BME280_pressure;Samples;Min_cycle;Max_cycle;Signal;HPM_P1;HPM_P2
2023/04/29 00:01:02;;;;;;;2.50;2.30;;;;;;;;;;4990624;28;20501;-91
2023/04/29 00:03:31;;;;;;;4.07;2.33;;;;;;;;;;5018105;28;20463;-93
2023/04/29 00:05:58;;;;;;;2.67;2.43;;;;;;;;;;5016436;28;20436;-92
2023/04/29 00:08:24;;;;;;;4.03;2.47;;;;;;;;;;4985668;28;20436;-91
2023/04/29 00:10:50;;;;;;;4.60;2.50;;;;;;;;;;5031776;28;20429;-92
2023/04/29 00:13:16;;;;;;;3.60;2.27;;;;;;;;;;5017071;28;20516;-93
2023/04/29 00:15:42;;;;;;;3.10;2.80;;;;;;;;;;5014743;28;20429;-91
2023/04/29 00:18:09;;;;;;;2.80;2.50;;;;;;;;;;5012756;28;20444;-92
2023/04/29 00:20:36;;;;;;;2.13;1.93;;;;;;;;;;5021775;28;20436;-90
2023/04/29 00:23:03;;;;;;;3.67;2.60;;;;;;;;;;5040559;28;20467;-91
2023/04/29 00:25:29;;;;;;;2.67;2.37;;;;;;;;;;5007150;28;20468;-91
2023/04/29 00:28:00;;;;;;;4.63;4.33;;;;;;;;;;5035944;28;20437;-93
2023/04/29 00:30:27;;;;;;;3.20;2.70;;;;;;;;;;5025309;28;20871;-92
2023/04/29 00:32:54;;;;;;;3.07;2.57;;;;;;;;;;4990801;28;20478;-92
2023/04/29 00:35:20;;;;;;;2.90;2.60;;;;;;;;;;5043507;28;20428;-92
2023/04/29 00:37:48;;;;;;;3.63;2.70;;;;;;;;;;5007427;28;20490;-94
2023/04/29 00:40:14;;;;;;;2.97;2.53;;;;;;;;;;5031212;28;20455;-92
2023/04/29 00:42:40;;;;;;;2.73;2.53;;;;;;;;;;4991290;28;20572;-92
2023/04/29 00:45:07;;;;;;;2.73;2.40;;;;;;;;;;5038707;28;20994;-90
2023/04/29 00:47:33;;;;;;;4.30;2.93;;;;;;;;;;5005755;28;20488;-92
2023/04/29 00:49:59;;;;;;;2.60;2.30;;;;;;;;;;4987613;28;20579;-93
2023/04/29 00:52:26;;;;;;;2.70;2.30;;;;;;;;;;4992040;28;20468;-92
2023/04/29 00:54:52;;;;;;;3.40;3.03;;;;;;;;;;4992267;28;20992;-91
2023/04/29 00:57:18;;;;;;;5.97;3.10;;;;;;;;;;5017738;28;20424;-91
2023/04/29 00:59:44;;;;;;;2.87;2.17;;;;;;;;;;5006516;28;20441;-91
2023/04/29 01:02:10;;;;;;;2.93;2.40;;;;;;;;;;5002350;28;20455;-89
2023/04/29 01:04:37;;;;;;;5.50;3.00;;;;;;;;;;5000550;28;20468;-92
2023/04/29 01:07:17;;;;;;;4.13;2.33;;;;;;;;;;5001838;28;20425;-91
2023/04/29 01:09:42;;;;;;;7.87;2.57;;;;;;;;;;5017187;28;20998;-90
2023/04/29 01:12:24;;;;;;;2.90;2.63;;;;;;;;;;5024347;28;20440;-91
2023/04/29 01:15:10;;;;;;;2.87;2.63;;;;;;;;;;5009370;28;20405;-91
2023/04/29 01:17:40;;;;;;;3.67;3.07;;;;;;;;;;4992159;28;21183;-91
2023/04/29 01:20:06;;;;;;;6.80;4.00;;;;;;;;;;4999786;28;20486;-91
2023/04/29 01:22:32;;;;;;;3.40;3.10;;;;;;;;;;5006732;28;20452;-91
2023/04/29 01:24:58;;;;;;;3.57;3.27;;;;;;;;;;4996453;28;20504;-91
2023/04/29 01:27:24;;;;;;;4.00;3.10;;;;;;;;;;4998876;28;20503;-91
2023/04/29 01:29:53;;;;;;;2.87;2.30;;;;;;;;;;5001473;28;20460;-91
2023/04/29 01:32:24;;;;;;;3.97;2.43;;;;;;;;;;5017231;28;20511;-91
2023/04/29 01:35:05;;;;;;;3.70;2.80;;;;;;;;;;4996644;28;20437;-92
2023/04/29 01:37:43;;;;;;;3.50;2.37;;;;;;;;;;5011139;28;20437;-88
2023/04/29 01:40:12;;;;;;;3.60;3.00;;;;;;;;;;4988647;28;20933;-90
2023/04/29 01:42:39;;;;;;;4.23;2.93;;;;;;;;;;5002610;28;20437;-90
2023/04/29 01:45:06;;;;;;;4.47;2.70;;;;;;;;;;5015120;28;20471;-91
2023/04/29 01:47:32;;;;;;;3.27;2.97;;;;;;;;;;4984267;28;20425;-90
2023/04/29 01:49:58;;;;;;;3.30;2.63;;;;;;;;;;4982188;28;20440;-90
2023/04/29 01:52:24;;;;;;;3.47;3.10;;;;;;;;;;4993244;28;20421;-90
2023/04/29 01:54:50;;;;;;;3.40;2.53;;;;;;;;;;5002360;28;20532;-92
2023/04/29 01:57:16;;;;;;;2.80;1.90;;;;;;;;;;5001615;28;20599;-92
2023/04/29 01:59:42;;;;;;;2.67;2.43;;;;;;;;;;4999880;28;20435;-92
2023/04/29 02:02:09;;;;;;;3.13;2.53;;;;;;;;;;4998059;28;20971;-91
2023/04/29 02:04:35;;;;;;;3.40;3.10;;;;;;;;;;4999720;28;20456;-90
2023/04/29 02:07:02;;;;;;;2.70;2.50;;;;;;;;;;5001981;28;20480;-90
2023/04/29 02:09:28;;;;;;;2.90;2.70;;;;;;;;;;5020063;28;20531;-90
2023/04/29 02:11:54;;;;;;;3.17;2.63;;;;;;;;;;4987735;28;20468;-91
2023/04/29 02:14:20;;;;;;;3.50;3.20;;;;;;;;;;5000729;28;20429;-91
2023/04/29 02:16:47;;;;;;;3.93;3.50;;;;;;;;;;5000237;28;20436;-89
2023/04/29 02:19:15;;;;;;;3.50;2.73;;;;;;;;;;4983149;28;20671;-90
2023/04/29 02:21:41;;;;;;;3.80;3.07;;;;;;;;;;4982297;28;20443;-91
2023/04/29 02:24:07;;;;;;;3.10;2.60;;;;;;;;;;4983826;28;20546;-91
2023/04/29 02:26:34;;;;;;;3.80;3.50;;;;;;;;;;5001682;28;20440;-92
2023/04/29 02:29:02;;;;;;;4.20;2.53;;;;;;;;;;4991791;28;20465;-91
2023/04/29 02:31:28;;;;;;;2.50;2.30;;;;;;;;;;4998548;28;20488;-89
2023/04/29 02:33:54;;;;;;;3.33;2.77;;;;;;;;;;4983102;28;20463;-91
2023/04/29 02:36:20;;;;;;;4.33;2.90;;;;;;;;;;4982195;28;20432;-90
2023/04/29 02:38:49;;;;;;;9.00;3.33;;;;;;;;;;4985388;28;20436;-91
2023/04/29 02:41:19;;;;;;;2.50;2.30;;;;;;;;;;4998788;28;20448;-91
2023/04/29 02:43:45;;;;;;;4.40;2.70;;;;;;;;;;4995225;28;20470;-92
2023/04/29 02:46:11;;;;;;;3.17;2.87;;;;;;;;;;5005228;28;20468;-89
2023/04/29 02:48:38;;;;;;;3.70;2.63;;;;;;;;;;5007458;28;21149;-90
2023/04/29 02:51:04;;;;;;;7.27;2.90;;;;;;;;;;5006358;28;20436;-91
2023/04/29 02:53:30;;;;;;;6.20;2.80;;;;;;;;;;5005007;28;20909;-90
2023/04/29 02:55:56;;;;;;;3.30;3.00;;;;;;;;;;4983983;28;20445;-89
2023/04/29 02:58:22;;;;;;;3.70;2.77;;;;;;;;;;5017138;28;20937;-91
2023/04/29 03:00:48;;;;;;;3.10;2.80;;;;;;;;;;4980723;28;20441;-88
2023/04/29 03:03:14;;;;;;;2.73;2.47;;;;;;;;;;4980664;28;20485;-88
2023/04/29 03:05:40;;;;;;;5.03;2.90;;;;;;;;;;4981054;28;20417;-91
2023/04/29 03:08:06;;;;;;;3.40;2.50;;;;;;;;;;4993331;28;20444;-92
2023/04/29 03:10:32;;;;;;;5.73;2.97;;;;;;;;;;5006858;28;20460;-91
2023/04/29 03:12:58;;;;;;;4.13;2.73;;;;;;;;;;4999240;28;20429;-90
2023/04/29 03:15:24;;;;;;;3.50;3.20;;;;;;;;;;4995886;28;20429;-91
2023/04/29 03:17:50;;;;;;;7.10;3.40;;;;;;;;;;4991001;28;20440;-90
2023/04/29 03:20:16;;;;;;;3.40;3.10;;;;;;;;;;4982708;28;20440;-92
2023/04/29 03:22:42;;;;;;;4.60;2.97;;;;;;;;;;4997492;28;20465;-92
2023/04/29 03:25:10;;;;;;;3.60;2.60;;;;;;;;;;4980138;28;20964;-88
2023/04/29 03:27:36;;;;;;;4.30;2.80;;;;;;;;;;5001933;28;20441;-90
2023/04/29 03:30:02;;;;;;;2.63;2.43;;;;;;;;;;4975499;28;20421;-91
2023/04/29 03:32:28;;;;;;;3.33;3.00;;;;;;;;;;4998810;28;21157;-93
2023/04/29 03:34:54;;;;;;;3.80;2.93;;;;;;;;;;4993441;28;20444;-92
2023/04/29 03:37:20;;;;;;;2.90;2.40;;;;;;;;;;5013629;28;20440;-94
2023/04/29 03:39:46;;;;;;;3.50;3.20;;;;;;;;;;4979921;28;20429;-92
2023/04/29 03:42:12;;;;;;;4.97;3.40;;;;;;;;;;5011706;28;20491;-92
2023/04/29 03:44:38;;;;;;;3.37;3.07;;;;;;;;;;5002387;28;20476;-92
2023/04/29 03:47:05;;;;;;;5.00;3.43;;;;;;;;;;4997687;28;21160;-90
2023/04/29 03:49:31;;;;;;;4.30;3.63;;;;;;;;;;4993130;28;20433;-89
2023/04/29 03:51:57;;;;;;;3.80;2.70;;;;;;;;;;5011657;28;20445;-90
2023/04/29 03:54:23;;;;;;;3.83;2.80;;;;;;;;;;4999467;28;20449;-89
2023/04/29 03:56:49;;;;;;;2.90;2.70;;;;;;;;;;4979554;28;20433;-88
2023/04/29 03:59:15;;;;;;;4.10;3.13;;;;;;;;;;4988792;28;20428;-90
2023/04/29 04:01:41;;;;;;;3.70;3.37;;;;;;;;;;4999682;28;20428;-90
2023/04/29 04:04:07;;;;;;;3.77;3.10;;;;;;;;;;4980363;28;20499;-89
2023/04/29 04:06:33;;;;;;;6.03;3.33;;;;;;;;;;5001797;28;20437;-90
2023/04/29 04:08:59;;;;;;;8.30;3.47;;;;;;;;;;4997795;28;20440;-88
2023/04/29 04:11:25;;;;;;;4.03;3.43;;;;;;;;;;4997186;28;20425;-89
2023/04/29 04:13:51;;;;;;;4.03;3.27;;;;;;;;;;4982202;28;20443;-87
2023/04/29 04:16:19;;;;;;;5.00;3.67;;;;;;;;;;4986234;28;20938;-89
2023/04/29 04:18:45;;;;;;;3.00;2.80;;;;;;;;;;5004317;28;20440;-88
2023/04/29 04:21:11;;;;;;;3.70;2.93;;;;;;;;;;4983358;28;20456;-90
2023/04/29 04:23:39;;;;;;;4.07;3.23;;;;;;;;;;4983653;28;20487;-90
2023/04/29 04:26:05;;;;;;;3.50;3.20;;;;;;;;;;4991885;28;21023;-89
2023/04/29 04:28:33;;;;;;;6.13;3.53;;;;;;;;;;5008215;28;21175;-89
2023/04/29 04:30:59;;;;;;;4.27;3.53;;;;;;;;;;4990074;28;20491;-89
2023/04/29 04:33:27;;;;;;;3.77;3.37;;;;;;;;;;5020368;28;20471;-88
2023/04/29 04:35:53;;;;;;;4.90;3.40;;;;;;;;;;4991447;28;20438;-88
2023/04/29 04:38:19;;;;;;;5.47;4.03;;;;;;;;;;5008602;28;20428;-90
2023/04/29 04:40:45;;;;;;;4.30;3.70;;;;;;;;;;5000572;28;20440;-89
2023/04/29 04:43:11;;;;;;;3.60;3.10;;;;;;;;;;4999506;28;20474;-88
2023/04/29 04:45:37;;;;;;;4.20;3.73;;;;;;;;;;5019938;28;20429;-90
2023/04/29 04:48:03;;;;;;;3.73;3.20;;;;;;;;;;4999401;28;20443;-89
2023/04/29 04:50:29;;;;;;;4.90;3.60;;;;;;;;;;5002365;28;20491;-89
2023/04/29 04:52:56;;;;;;;6.17;3.60;;;;;;;;;;5002772;28;20440;-89
2023/04/29 04:55:22;;;;;;;4.87;3.70;;;;;;;;;;4995967;28;20521;-90
2023/04/29 04:57:48;;;;;;;4.97;4.37;;;;;;;;;;5015585;28;20448;-89
2023/04/29 05:00:14;;;;;;;5.40;3.60;;;;;;;;;;5007037;28;20437;-89
2023/04/29 05:02:40;;;;;;;4.93;3.73;;;;;;;;;;5018442;28;20465;-91
2023/04/29 05:05:07;;;;;;;5.10;4.60;;;;;;;;;;4998406;28;20508;-90
2023/04/29 05:07:35;;;;;;;4.47;4.07;;;;;;;;;;4984075;28;20434;-91
2023/04/29 05:10:01;;;;;;;5.70;3.70;;;;;;;;;;5023294;28;20529;-90
2023/04/29 05:12:29;;;;;;;4.70;4.17;;;;;;;;;;5019742;28;20801;-91
2023/04/29 05:14:56;;;;;;;5.13;4.70;;;;;;;;;;4976774;28;20948;-89
2023/04/29 05:17:22;;;;;;;5.17;4.67;;;;;;;;;;4994205;28;20417;-93
2023/04/29 05:19:48;;;;;;;5.70;5.00;;;;;;;;;;5019929;28;20509;-91
2023/04/29 05:22:13;;;;;;;7.37;5.20;;;;;;;;;;4992481;28;20452;-89
2023/04/29 05:24:39;;;;;;;4.73;3.67;;;;;;;;;;5003430;28;20457;-90
2023/04/29 05:27:05;;;;;;;5.73;4.20;;;;;;;;;;5017730;28;20441;-90
2023/04/29 05:29:31;;;;;;;4.40;4.00;;;;;;;;;;4991809;28;20417;-91
2023/04/29 05:31:58;;;;;;;5.37;4.27;;;;;;;;;;4982185;28;20512;-93
2023/04/29 05:34:24;;;;;;;5.63;3.50;;;;;;;;;;5001744;28;20472;-92
2023/04/29 05:36:52;;;;;;;3.77;3.27;;;;;;;;;;4987048;28;20447;-92
2023/04/29 05:39:18;;;;;;;4.60;3.67;;;;;;;;;;5001567;28;20430;-90
2023/04/29 05:41:44;;;;;;;5.30;3.70;;;;;;;;;;5010081;28;20456;-90
2023/04/29 05:44:10;;;;;;;4.90;3.63;;;;;;;;;;4997086;28;20519;-91
2023/04/29 05:46:36;;;;;;;5.70;4.33;;;;;;;;;;5025401;28;20480;-91
2023/04/29 05:49:04;;;;;;;4.77;4.37;;;;;;;;;;5007729;28;20424;-90
2023/04/29 05:51:30;;;;;;;4.73;4.20;;;;;;;;;;5007220;28;20433;-91
2023/04/29 05:53:58;;;;;;;6.20;4.80;;;;;;;;;;5000110;28;20417;-90
2023/04/29 05:56:24;;;;;;;5.97;5.37;;;;;;;;;;5005399;28;20448;-93
2023/04/29 05:58:50;;;;;;;5.63;5.13;;;;;;;;;;5015156;28;20504;-93
2023/04/29 06:01:17;;;;;;;5.30;4.80;;;;;;;;;;5015170;28;20433;-91
2023/04/29 06:03:44;;;;;;;6.37;5.30;;;;;;;;;;5002722;28;20473;-90
2023/04/29 06:06:11;;;;;;;6.50;5.37;;;;;;;;;;4991305;28;20964;-92
2023/04/29 06:08:37;;;;;;;8.13;4.97;;;;;;;;;;5003150;28;20425;-90
2023/04/29 06:11:04;;;;;;;6.03;5.43;;;;;;;;;;4987867;28;20433;-91
2023/04/29 06:13:30;;;;;;;6.20;5.60;;;;;;;;;;5013075;28;20432;-91
2023/04/29 06:15:56;;;;;;;5.43;4.93;;;;;;;;;;4987306;28;20471;-91
2023/04/29 06:18:22;;;;;;;5.40;4.90;;;;;;;;;;4997999;28;20504;-90
2023/04/29 06:20:51;;;;;;;5.73;4.97;;;;;;;;;;4991821;28;20961;-91
2023/04/29 06:23:17;;;;;;;6.10;5.10;;;;;;;;;;4997350;28;20816;-90
2023/04/29 06:25:43;;;;;;;6.13;5.10;;;;;;;;;;4994000;28;20434;-91
2023/04/29 06:28:09;;;;;;;4.63;4.23;;;;;;;;;;5010597;28;20453;-90
2023/04/29 06:30:37;;;;;;;6.80;5.73;;;;;;;;;;5013108;28;20444;-93
2023/04/29 06:33:03;;;;;;;7.40;4.37;;;;;;;;;;5007244;28;20436;-91
2023/04/29 06:35:29;;;;;;;5.93;5.10;;;;;;;;;;4998024;28;20448;-93
2023/04/29 06:37:55;;;;;;;5.60;5.10;;;;;;;;;;4977444;28;20851;-91
2023/04/29 06:40:21;;;;;;;6.60;5.90;;;;;;;;;;4984878;28;20423;-91
2023/04/29 06:42:47;;;;;;;5.63;4.57;;;;;;;;;;4998884;28;20425;-93
2023/04/29 06:45:15;;;;;;;5.70;4.40;;;;;;;;;;4994959;28;20481;-92
2023/04/29 06:47:41;;;;;;;6.30;5.20;;;;;;;;;;4985201;28;20440;-91
2023/04/29 06:50:18;;;;;;;4.33;4.00;;;;;;;;;;4991293;28;20443;-93
2023/04/29 06:52:45;;;;;;;4.17;3.87;;;;;;;;;;5003203;28;20460;-90
2023/04/29 06:55:11;;;;;;;5.23;4.73;;;;;;;;;;4999420;28;20434;-90
2023/04/29 06:57:37;;;;;;;5.77;3.80;;;;;;;;;;5019316;28;20441;-93
2023/04/29 07:00:04;;;;;;;3.60;3.30;;;;;;;;;;5001796;28;20433;-92
2023/04/29 07:02:30;;;;;;;4.00;3.70;;;;;;;;;;5010687;28;20433;-91
2023/04/29 07:04:56;;;;;;;4.30;3.57;;;;;;;;;;4993105;28;20980;-91
2023/04/29 07:07:22;;;;;;;5.50;3.63;;;;;;;;;;5017353;28;20466;-89
2023/04/29 07:09:50;;;;;;;3.30;3.00;;;;;;;;;;4998513;28;20507;-89
2023/04/29 07:12:16;;;;;;;2.90;2.47;;;;;;;;;;4975756;28;20466;-89
2023/04/29 07:14:42;;;;;;;3.53;3.23;;;;;;;;;;4996640;28;20452;-91
2023/04/29 07:17:08;;;;;;;3.50;2.63;;;;;;;;;;4994874;28;20443;-91
2023/04/29 07:19:35;;;;;;;2.97;2.50;;;;;;;;;;5013161;28;20429;-91
2023/04/29 07:22:01;;;;;;;2.50;2.30;;;;;;;;;;4984063;28;20432;-93
2023/04/29 07:24:27;;;;;;;3.07;2.77;;;;;;;;;;4990566;28;20470;-93
2023/04/29 07:26:56;;;;;;;3.20;2.40;;;;;;;;;;5007074;28;20444;-93
2023/04/29 07:29:22;;;;;;;3.40;2.23;;;;;;;;;;4992006;28;20544;-93
2023/04/29 07:31:48;;;;;;;4.20;2.30;;;;;;;;;;4988814;28;20437;-91
2023/04/29 07:34:14;;;;;;;3.43;2.47;;;;;;;;;;5003464;28;20445;-91
2023/04/29 07:36:40;;;;;;;2.53;2.33;;;;;;;;;;5003832;28;20453;-91
2023/04/29 07:39:07;;;;;;;2.47;2.03;;;;;;;;;;5011353;28;20425;-91
2023/04/29 07:41:33;;;;;;;3.27;2.40;;;;;;;;;;4989997;28;20924;-91
2023/04/29 07:43:59;;;;;;;2.60;2.40;;;;;;;;;;4997727;28;20564;-92
2023/04/29 07:46:25;;;;;;;2.97;2.40;;;;;;;;;;4994994;28;20441;-90
2023/04/29 07:48:51;;;;;;;2.17;1.93;;;;;;;;;;4990098;28;20452;-91
2023/04/29 07:51:17;;;;;;;3.77;2.90;;;;;;;;;;4994343;28;20600;-90
2023/04/29 07:53:44;;;;;;;3.17;2.33;;;;;;;;;;4991834;28;20971;-91
2023/04/29 07:56:10;;;;;;;2.87;2.47;;;;;;;;;;4976402;28;20456;-88
2023/04/29 07:58:36;;;;;;;3.03;2.40;;;;;;;;;;4975545;28;20448;-88
2023/04/29 08:01:09;;;;;;;3.50;2.43;;;;;;;;;;4999933;28;20445;-92
2023/04/29 08:03:35;;;;;;;2.90;2.43;;;;;;;;;;4993675;28;20546;-90
2023/04/29 08:06:02;;;;;;;2.87;2.57;;;;;;;;;;5015360;28;20466;-89
2023/04/29 08:08:28;;;;;;;5.40;2.27;;;;;;;;;;4976744;28;20433;-86
2023/04/29 08:10:54;;;;;;;2.40;1.90;;;;;;;;;;4988693;28;20437;-87
2023/04/29 08:13:20;;;;;;;5.23;2.50;;;;;;;;;;5002922;28;20767;-86
2023/04/29 08:15:46;;;;;;;2.53;2.30;;;;;;;;;;4989792;28;20428;-86
2023/04/29 08:18:12;;;;;;;3.70;2.57;;;;;;;;;;4992839;28;20972;-86
2023/04/29 08:20:38;;;;;;;3.17;2.87;;;;;;;;;;4973334;28;20444;-85
2023/04/29 08:23:04;;;;;;;2.90;2.40;;;;;;;;;;5002100;28;20559;-85
2023/04/29 08:25:30;;;;;;;4.23;2.60;;;;;;;;;;4988787;28;20839;-86
2023/04/29 08:27:56;;;;;;;2.57;2.37;;;;;;;;;;5005304;28;20509;-87
2023/04/29 08:30:23;;;;;;;2.77;2.57;;;;;;;;;;4992198;28;20432;-85
2023/04/29 08:32:51;;;;;;;3.03;2.53;;;;;;;;;;4972245;28;20433;-86
2023/04/29 08:35:17;;;;;;;2.70;2.50;;;;;;;;;;5009061;28;20464;-87
2023/04/29 08:40:19;;;;;;;3.30;2.63;;;;;;;;;;5203237;22;21022;-85
2023/04/29 08:42:45;;;;;;;3.73;2.90;;;;;;;;;;5048928;28;20503;-85
2023/04/29 08:45:12;;;;;;;2.77;2.57;;;;;;;;;;5064300;28;20496;-86
2023/04/29 08:47:38;;;;;;;3.07;2.50;;;;;;;;;;5050304;28;20453;-87
2023/04/29 08:50:04;;;;;;;4.20;2.80;;;;;;;;;;5030704;28;20436;-87
2023/04/29 08:52:31;;;;;;;4.03;3.33;;;;;;;;;;5005058;28;20431;-87
2023/04/29 08:54:57;;;;;;;3.27;2.97;;;;;;;;;;5009958;28;20502;-86
2023/04/29 08:57:26;;;;;;;2.83;2.60;;;;;;;;;;5005491;28;20439;-86
2023/04/29 08:59:52;;;;;;;5.60;3.50;;;;;;;;;;5026550;28;20426;-87
2023/04/29 09:02:20;;;;;;;4.83;4.10;;;;;;;;;;5019521;28;20441;-87
2023/04/29 09:04:57;;;;;;;3.47;3.17;;;;;;;;;;5011200;28;20518;-91
2023/04/29 09:07:23;;;;;;;3.90;3.60;;;;;;;;;;5007489;28;20526;-87
2023/04/29 09:09:49;;;;;;;4.00;3.70;;;;;;;;;;5017577;28;20589;-95
2023/04/29 09:12:15;;;;;;;4.37;3.87;;;;;;;;;;5001872;28;20462;-93
2023/04/29 09:14:42;;;;;;;4.67;4.27;;;;;;;;;;5021155;28;20506;-94
2023/04/29 09:17:08;;;;;;;4.30;3.90;;;;;;;;;;5025229;28;20443;-86
2023/04/29 09:19:34;;;;;;;3.60;3.30;;;;;;;;;;4998889;28;20432;-90
2023/04/29 09:22:04;;;;;;;3.73;3.43;;;;;;;;;;5045440;28;20727;-91
2023/04/29 09:24:30;;;;;;;4.93;3.50;;;;;;;;;;5039574;28;20454;-90
2023/04/29 09:26:57;;;;;;;4.50;3.97;;;;;;;;;;5026732;28;20430;-89
2023/04/29 09:29:23;;;;;;;4.37;3.47;;;;;;;;;;5030757;28;20432;-88
2023/04/29 09:31:49;;;;;;;3.43;2.80;;;;;;;;;;5030576;28;20894;-86
2023/04/29 09:34:15;;;;;;;3.90;3.50;;;;;;;;;;5041929;28;20438;-87
2023/04/29 09:36:44;;;;;;;2.60;2.40;;;;;;;;;;5032292;28;20447;-86
2023/04/29 09:39:11;;;;;;;4.10;3.33;;;;;;;;;;5047958;28;21221;-87
2023/04/29 09:42:02;;;;;;;3.10;2.90;;;;;;;;;;5037993;28;20969;-87
2023/04/29 09:44:31;;;;;;;4.67;2.93;;;;;;;;;;5050127;28;20462;-86
2023/04/29 09:47:02;;;;;;;3.30;2.77;;;;;;;;;;5047665;28;20901;-92
2023/04/29 09:49:34;;;;;;;3.67;3.30;;;;;;;;;;5043440;28;20422;-88
2023/04/29 09:52:01;;;;;;;4.20;3.27;;;;;;;;;;5053446;28;20903;-87
2023/04/29 09:54:30;;;;;;;3.73;3.23;;;;;;;;;;5046286;28;20434;-87
2023/04/29 09:56:58;;;;;;;4.33;3.00;;;;;;;;;;5066897;28;20431;-89
2023/04/29 09:59:24;;;;;;;9.00;3.57;;;;;;;;;;5066822;28;20438;-90
2023/04/29 10:01:51;;;;;;;3.00;2.70;;;;;;;;;;5041946;28;20438;-89
2023/04/29 10:04:18;;;;;;;3.30;2.73;;;;;;;;;;5051088;28;20462;-89
2023/04/29 10:06:44;;;;;;;3.50;3.20;;;;;;;;;;5047006;28;20464;-89
2023/04/29 10:09:14;;;;;;;3.70;3.33;;;;;;;;;;5051240;28;20423;-89
2023/04/29 10:11:44;;;;;;;5.43;2.80;;;;;;;;;;5058053;28;20422;-93
2023/04/29 10:14:15;;;;;;;6.33;2.80;;;;;;;;;;5053322;28;20458;-89
2023/04/29 10:16:45;;;;;;;5.17;3.03;;;;;;;;;;5060246;28;20452;-90
2023/04/29 10:19:15;;;;;;;3.07;2.63;;;;;;;;;;5055183;28;20441;-88
2023/04/29 10:21:41;;;;;;;3.30;2.53;;;;;;;;;;5058612;28;20423;-87
2023/04/29 10:24:08;;;;;;;5.50;3.13;;;;;;;;;;5038830;28;20519;-87
2023/04/29 10:26:36;;;;;;;3.00;2.30;;;;;;;;;;5054602;28;20426;-89
2023/04/29 10:29:03;;;;;;;3.20;2.90;;;;;;;;;;5036986;28;20457;-89
2023/04/29 10:31:30;;;;;;;3.47;2.57;;;;;;;;;;5046017;28;20505;-89
2023/04/29 10:34:00;;;;;;;3.23;2.57;;;;;;;;;;5055705;28;21110;-88
2023/04/29 10:36:27;;;;;;;3.90;2.50;;;;;;;;;;5040102;28;20429;-87
2023/04/29 10:38:54;;;;;;;2.97;2.37;;;;;;;;;;5041892;28;20488;-88
2023/04/29 10:41:24;;;;;;;2.73;2.50;;;;;;;;;;5039357;28;21151;-87
2023/04/29 10:43:53;;;;;;;5.23;2.80;;;;;;;;;;5041329;28;20502;-88
2023/04/29 10:46:20;;;;;;;3.60;2.80;;;;;;;;;;5055250;28;20446;-88
2023/04/29 10:48:46;;;;;;;2.90;2.60;;;;;;;;;;5051035;28;20439;-87
2023/04/29 10:51:13;;;;;;;3.87;2.50;;;;;;;;;;5054821;28;20440;-86
2023/04/29 10:54:00;;;;;;;3.47;2.70;;;;;;;;;;5020796;28;20978;-88
2023/04/29 10:56:48;;;;;;;3.23;2.50;;;;;;;;;;5012028;28;20430;-89
2023/04/29 10:59:15;;;;;;;3.20;2.70;;;;;;;;;;5001269;28;20438;-89
2023/04/29 11:01:45;;;;;;;3.73;2.80;;;;;;;;;;5019611;28;20447;-90
2023/04/29 11:04:11;;;;;;;3.07;2.77;;;;;;;;;;4996994;28;20569;-91
2023/04/29 11:06:40;;;;;;;2.60;2.30;;;;;;;;;;5001368;28;20504;-90
2023/04/29 11:09:11;;;;;;;5.53;2.60;;;;;;;;;;5014869;28;20433;-91
2023/04/29 11:11:48;;;;;;;3.03;2.67;;;;;;;;;;5003644;28;20409;-90
2023/04/29 11:14:15;;;;;;;3.50;2.30;;;;;;;;;;5015305;28;20935;-89
2023/04/29 11:16:59;;;;;;;2.20;2.00;;;;;;;;;;5001430;28;20464;-91
2023/04/29 11:19:27;;;;;;;4.00;2.47;;;;;;;;;;5004146;28;20444;-91
2023/04/29 11:22:12;;;;;;;4.00;3.60;;;;;;;;;;5006093;28;20434;-91
2023/04/29 11:24:59;;;;;;;3.33;2.20;;;;;;;;;;5040326;28;20512;-90
2023/04/29 11:27:25;;;;;;;2.20;1.77;;;;;;;;;;5042252;28;20410;-90
2023/04/29 11:29:57;;;;;;;6.60;2.33;;;;;;;;;;5042189;28;20529;-91
2023/04/29 11:32:24;;;;;;;3.57;1.80;;;;;;;;;;5039381;28;20405;-91
2023/04/29 11:34:50;;;;;;;2.83;1.90;;;;;;;;;;5027569;28;20458;-90
2023/04/29 11:37:20;;;;;;;2.50;2.30;;;;;;;;;;5041329;28;20425;-90
2023/04/29 11:39:46;;;;;;;2.00;1.80;;;;;;;;;;5046557;28;20560;-90
2023/04/29 11:42:15;;;;;;;3.27;2.10;;;;;;;;;;5045998;28;20445;-90
2023/04/29 11:44:46;;;;;;;2.00;1.70;;;;;;;;;;5044207;28;20457;-90
2023/04/29 11:47:12;;;;;;;2.70;2.17;;;;;;;;;;5044212;28;20435;-90
2023/04/29 11:49:38;;;;;;;3.20;1.80;;;;;;;;;;5063158;28;20467;-90
2023/04/29 11:52:05;;;;;;;3.13;1.90;;;;;;;;;;5052206;28;20454;-90
2023/04/29 11:54:31;;;;;;;7.60;3.30;;;;;;;;;;5059662;28;20433;-91
2023/04/29 11:56:57;;;;;;;4.00;3.03;;;;;;;;;;5039953;28;20460;-91
2023/04/29 11:59:23;;;;;;;4.33;3.73;;;;;;;;;;5039595;28;20510;-91
2023/04/29 12:01:50;;;;;;;7.00;5.20;;;;;;;;;;5042128;28;20779;-89
2023/04/29 12:04:16;;;;;;;5.63;4.50;;;;;;;;;;5041297;28;20541;-92
2023/04/29 12:06:42;;;;;;;4.70;4.10;;;;;;;;;;5063503;28;20461;-91
2023/04/29 12:09:08;;;;;;;4.73;4.33;;;;;;;;;;5019332;28;20488;-90
2023/04/29 12:11:34;;;;;;;5.73;5.17;;;;;;;;;;5001652;28;20417;-90
2023/04/29 12:14:04;;;;;;;6.70;5.03;;;;;;;;;;4988576;28;20445;-90
2023/04/29 12:16:31;;;;;;;6.33;4.77;;;;;;;;;;5005272;28;20428;-92
2023/04/29 12:18:58;;;;;;;5.13;4.60;;;;;;;;;;4982287;28;21257;-89
2023/04/29 12:21:26;;;;;;;4.90;4.40;;;;;;;;;;5002432;28;20566;-89
2023/04/29 12:23:52;;;;;;;7.70;5.17;;;;;;;;;;5017154;28;20464;-90
2023/04/29 12:26:19;;;;;;;5.90;5.30;;;;;;;;;;4989107;28;20462;-91
2023/04/29 12:28:46;;;;;;;6.00;4.33;;;;;;;;;;5004695;28;20526;-89
2023/04/29 12:31:14;;;;;;;6.23;4.73;;;;;;;;;;5002476;28;20432;-89
2023/04/29 12:33:43;;;;;;;8.27;5.80;;;;;;;;;;5003865;28;20490;-89
2023/04/29 12:36:16;;;;;;;6.53;5.90;;;;;;;;;;5001236;28;20451;-91
2023/04/29 12:38:42;;;;;;;6.10;5.50;;;;;;;;;;5019458;28;20569;-90
2023/04/29 12:41:08;;;;;;;6.33;4.87;;;;;;;;;;5000370;28;21022;-90
2023/04/29 12:43:35;;;;;;;4.93;4.43;;;;;;;;;;4988933;28;20464;-91
2023/04/29 12:46:02;;;;;;;9.93;5.53;;;;;;;;;;5022420;28;20425;-90
2023/04/29 12:48:36;;;;;;;6.60;4.93;;;;;;;;;;5045883;28;20808;-92
2023/04/29 12:51:02;;;;;;;6.10;5.30;;;;;;;;;;5076702;28;20498;-90
2023/04/29 12:53:30;;;;;;;5.77;5.00;;;;;;;;;;5042577;28;20437;-89
2023/04/29 12:55:57;;;;;;;6.13;4.33;;;;;;;;;;5058079;28;20413;-88
2023/04/29 12:58:23;;;;;;;7.23;5.40;;;;;;;;;;5050537;28;20466;-89
2023/04/29 13:00:49;;;;;;;5.73;5.10;;;;;;;;;;5023403;28;20449;-87
2023/04/29 13:03:15;;;;;;;6.57;4.70;;;;;;;;;;5016217;28;20434;-88
2023/04/29 13:05:41;;;;;;;5.80;4.40;;;;;;;;;;5030788;28;20439;-88
2023/04/29 13:08:07;;;;;;;5.73;4.63;;;;;;;;;;5022155;28;20522;-88
2023/04/29 13:10:34;;;;;;;6.27;4.97;;;;;;;;;;5000803;28;20543;-88
2023/04/29 13:13:00;;;;;;;10.70;5.67;;;;;;;;;;5034994;28;20420;-88
2023/04/29 13:15:26;;;;;;;6.80;5.60;;;;;;;;;;4998367;28;20963;-88
2023/04/29 13:17:52;;;;;;;6.10;5.37;;;;;;;;;;5003782;28;20992;-88
2023/04/29 13:20:19;;;;;;;6.33;5.07;;;;;;;;;;5017247;28;20573;-88
2023/04/29 13:22:45;;;;;;;5.77;5.17;;;;;;;;;;5021788;28;20439;-89
2023/04/29 13:25:11;;;;;;;6.50;5.73;;;;;;;;;;5019311;28;20656;-88
2023/04/29 13:27:37;;;;;;;7.93;5.70;;;;;;;;;;5004671;28;20565;-87
2023/04/29 13:30:05;;;;;;;7.00;5.50;;;;;;;;;;5017930;28;20435;-88
2023/04/29 13:32:31;;;;;;;10.83;7.30;;;;;;;;;;5016573;28;20425;-86
2023/04/29 13:34:56;;;;;;;9.10;7.40;;;;;;;;;;5017488;28;20993;-84
2023/04/29 13:37:22;;;;;;;6.70;5.40;;;;;;;;;;5018697;28;20548;-86
2023/04/29 13:39:49;;;;;;;7.07;6.23;;;;;;;;;;5035876;28;21103;-86
2023/04/29 13:42:15;;;;;;;5.97;5.37;;;;;;;;;;5035863;28;20976;-86
2023/04/29 13:44:43;;;;;;;10.27;6.60;;;;;;;;;;5040760;28;20455;-85
2023/04/29 13:47:11;;;;;;;6.93;5.83;;;;;;;;;;5038258;28;20420;-86
2023/04/29 13:49:37;;;;;;;7.43;6.30;;;;;;;;;;5035098;28;20423;-85
2023/04/29 13:52:03;;;;;;;7.77;6.47;;;;;;;;;;5042781;28;20430;-86
2023/04/29 13:54:29;;;;;;;7.70;5.87;;;;;;;;;;5053570;28;20445;-86
2023/04/29 13:56:55;;;;;;;6.73;5.27;;;;;;;;;;5032976;28;20423;-86
2023/04/29 13:59:22;;;;;;;8.30;6.90;;;;;;;;;;5030888;28;20869;-86
2023/04/29 14:01:49;;;;;;;8.57;5.70;;;;;;;;;;5031382;28;20416;-86
2023/04/29 14:04:16;;;;;;;8.90;6.60;;;;;;;;;;5053063;28;20454;-86
2023/04/29 14:06:45;;;;;;;10.97;7.40;;;;;;;;;;5036329;28;20430;-86
2023/04/29 14:09:11;;;;;;;9.23;7.47;;;;;;;;;;5033786;28;20416;-85
2023/04/29 14:11:37;;;;;;;9.30;6.20;;;;;;;;;;5033932;28;20579;-86
2023/04/29 14:14:03;;;;;;;8.43;6.13;;;;;;;;;;5062514;28;20485;-85
2023/04/29 14:16:29;;;;;;;7.13;5.37;;;;;;;;;;5035661;28;20426;-86
2023/04/29 14:18:55;;;;;;;10.20;7.87;;;;;;;;;;5036029;28;20410;-86
2023/04/29 14:21:21;;;;;;;8.10;6.30;;;;;;;;;;5048563;28;20418;-85
2023/04/29 14:23:48;;;;;;;10.97;6.77;;;;;;;;;;5047850;28;20458;-85
2023/04/29 14:26:15;;;;;;;8.10;6.20;;;;;;;;;;5035385;28;20426;-86
2023/04/29 14:28:41;;;;;;;10.63;6.77;;;;;;;;;;5037532;28;20434;-87
2023/04/29 14:31:07;;;;;;;8.60;7.40;;;;;;;;;;5033589;28;20435;-85
2023/04/29 14:33:33;;;;;;;10.87;8.37;;;;;;;;;;5029683;28;20445;-87
2023/04/29 14:35:59;;;;;;;9.27;7.30;;;;;;;;;;5033141;28;20459;-86
2023/04/29 14:38:26;;;;;;;11.30;6.70;;;;;;;;;;5048141;28;20993;-86
2023/04/29 14:40:52;;;;;;;8.93;6.77;;;;;;;;;;5031414;28;20439;-85
2023/04/29 14:43:18;;;;;;;8.63;6.93;;;;;;;;;;5050732;28;20972;-85
2023/04/29 14:45:44;;;;;;;9.53;7.07;;;;;;;;;;5064895;28;20428;-85